Time;durP1;ratioP1;P1;durP2;ratioP2;P2;SDS_P1;SDS_P2;PMS_P1;PMS_P2;Temp;Humidity;BMP_temperature;BMP_pressure;BME280_temperature;BME280_humidity;BME280_pressure;Samples;Min_cycle;Max_cycle;Signal;HPM_P1;HPM_P2
2021/03/29 00:02:24;;;;;;;9.45;1.63;;;10.90;73.20;;;;;;4994980;28;20533;-74
2021/03/29 00:04:50;;;;;;;3.20;1.35;;;10.90;73.20;;;;;;5012549;28;20161;-73
2021/03/29 00:07:18;;;;;;;3.42;1.63;;;10.90;73.30;;;;;;5012506;28;20117;-74
2021/03/29 00:09:44;;;;;;;2.85;1.50;;;10.90;73.20;;;;;;5012558;28;20029;-74
2021/03/29 00:12:12;;;;;;;4.20;1.65;;;10.90;73.20;;;;;;5012016;28;20022;-74
2021/03/29 00:14:38;;;;;;;4.07;2.10;;;10.90;73.10;;;;;;5013142;28;20046;-74
2021/03/29 00:17:05;;;;;;;8.23;2.22;;;10.90;73.10;;;;;;5015712;28;20411;-74
2021/03/29 00:19:35;;;;;;;4.25;1.52;;;10.90;73.10;;;;;;5012506;28;20140;-74
2021/03/29 00:22:02;;;;;;;3.15;1.42;;;10.80;72.90;;;;;;5011072;28;20427;-75
2021/03/29 00:24:28;;;;;;;8.40;1.83;;;10.80;73.00;;;;;;5012293;28;20057;-74
2021/03/29 00:26:54;;;;;;;4.13;1.88;;;10.80;72.90;;;;;;5011622;28;20072;-75
2021/03/29 00:29:19;;;;;;;4.10;1.75;;;10.80;72.80;;;;;;5011675;28;20022;-74
2021/03/29 00:31:46;;;;;;;3.15;1.60;;;10.80;72.90;;;;;;5011837;28;20072;-74
2021/03/29 00:34:12;;;;;;;2.60;1.27;;;10.80;72.90;;;;;;5011248;28;20101;-74
2021/03/29 00:36:38;;;;;;;4.43;1.45;;;10.80;72.90;;;;;;5011964;28;20034;-74
2021/03/29 00:39:06;;;;;;;2.28;1.30;;;10.80;73.00;;;;;;5011922;28;20076;-74
2021/03/29 00:41:32;;;;;;;3.67;1.60;;;10.80;72.90;;;;;;5012168;28;20029;-74
2021/03/29 00:43:59;;;;;;;7.38;1.92;;;10.80;73.00;;;;;;5010863;28;20057;-74
2021/03/29 00:46:25;;;;;;;3.78;1.75;;;10.80;73.00;;;;;;5011552;28;20059;-73
2021/03/29 00:48:52;;;;;;;3.97;1.45;;;10.70;73.00;;;;;;5010992;28;20088;-74
2021/03/29 00:51:21;;;;;;;5.18;1.55;;;10.70;73.00;;;;;;5010884;28;20026;-74
2021/03/29 00:53:59;;;;;;;3.33;1.75;;;10.70;73.00;;;;;;5011345;28;20157;-74
2021/03/29 00:56:26;;;;;;;3.75;1.40;;;10.70;73.10;;;;;;4993558;28;20133;-73
2021/03/29 00:58:52;;;;;;;3.08;1.55;;;10.70;73.10;;;;;;4992827;28;20351;-73
2021/03/29 01:01:22;;;;;;;3.50;1.40;;;10.70;73.10;;;;;;5010585;28;20100;-73
2021/03/29 01:03:54;;;;;;;3.10;1.73;;;10.70;73.10;;;;;;5011306;28;20167;-73
2021/03/29 01:06:23;;;;;;;4.55;1.90;;;10.70;73.10;;;;;;5011283;28;20018;-73
2021/03/29 01:09:05;;;;;;;4.07;1.45;;;10.70;73.10;;;;;;4993289;28;20037;-74
2021/03/29 01:11:34;;;;;;;6.18;1.75;;;10.70;73.00;;;;;;5011165;28;20474;-73
2021/03/29 01:14:08;;;;;;;3.42;1.40;;;10.70;73.10;;;;;;5010408;28;20042;-73
2021/03/29 01:16:39;;;;;;;2.47;1.15;;;10.70;73.10;;;;;;5011191;28;20026;-74
2021/03/29 01:19:14;;;;;;;4.22;1.75;;;10.70;73.10;;;;;;5010580;28;20161;-73
2021/03/29 01:21:40;;;;;;;4.32;1.40;;;10.70;73.10;;;;;;5010787;28;20022;-74
2021/03/29 01:24:15;;;;;;;3.15;1.48;;;10.70;73.20;;;;;;5010089;28;20346;-73
2021/03/29 01:26:46;;;;;;;5.68;1.58;;;10.70;73.10;;;;;;5011037;28;20041;-74
2021/03/29 01:29:17;;;;;;;2.95;1.33;;;10.70;73.20;;;;;;4992729;28;20362;-74
2021/03/29 01:31:45;;;;;;;3.80;1.50;;;10.70;73.20;;;;;;4993373;28;20033;-74
2021/03/29 01:34:13;;;;;;;3.08;1.80;;;10.70;73.20;;;;;;5010042;28;20124;-73
2021/03/29 01:36:40;;;;;;;4.13;1.40;;;10.70;73.30;;;;;;4993261;28;20197;-73
2021/03/29 01:39:07;;;;;;;7.35;1.88;;;10.70;73.30;;;;;;5010313;28;20033;-73
2021/03/29 01:41:34;;;;;;;5.03;1.40;;;10.70;73.20;;;;;;4993179;28;20088;-74
2021/03/29 01:44:01;;;;;;;5.97;2.00;;;10.70;73.30;;;;;;5010231;28;20029;-74
2021/03/29 01:46:27;;;;;;;8.18;2.03;;;10.70;73.10;;;;;;4993023;28;20022;-72
2021/03/29 01:48:54;;;;;;;4.82;2.10;;;10.80;73.00;;;;;;4993048;28;20022;-74
2021/03/29 01:51:20;;;;;;;3.13;1.73;;;10.80;72.90;;;;;;5010038;28;20026;-74
2021/03/29 01:53:47;;;;;;;2.92;1.45;;;10.80;72.90;;;;;;5010349;28;20540;-74
2021/03/29 01:56:14;;;;;;;6.55;1.83;;;10.80;72.70;;;;;;5010054;28;20038;-74
2021/03/29 01:58:40;;;;;;;1.88;1.40;;;10.90;72.50;;;;;;4992874;28;20037;-74
2021/03/29 02:01:09;;;;;;;4.63;1.80;;;10.90;72.40;;;;;;4992292;28;20022;-73
2021/03/29 02:03:36;;;;;;;4.55;1.70;;;10.90;72.20;;;;;;5010618;28;20454;-73
2021/03/29 02:06:06;;;;;;;5.53;1.60;;;11.00;71.90;;;;;;5009785;28;20026;-74
2021/03/29 02:08:34;;;;;;;6.88;1.70;;;11.00;71.90;;;;;;5010635;28;20037;-73
2021/03/29 02:11:03;;;;;;;10.25;2.80;;;11.00;71.90;;;;;;5013455;28;20026;-74
2021/03/29 02:13:40;;;;;;;3.28;2.15;;;11.00;71.70;;;;;;5014190;28;20026;-73
2021/03/29 02:16:09;;;;;;;5.75;2.33;;;11.00;71.60;;;;;;4995957;28;20492;-73
2021/03/29 02:18:41;;;;;;;3.80;2.10;;;11.00;71.50;;;;;;5014182;28;20422;-74
2021/03/29 02:21:13;;;;;;;4.00;1.40;;;11.00;71.50;;;;;;5013441;28;20018;-73
2021/03/29 02:23:42;;;;;;;2.33;1.15;;;11.10;71.70;;;;;;5013894;28;20459;-73
2021/03/29 02:26:09;;;;;;;1.83;1.50;;;11.00;71.70;;;;;;4995679;28;20191;-74
2021/03/29 02:28:35;;;;;;;4.30;2.08;;;11.00;71.70;;;;;;4995922;28;20109;-74
2021/03/29 02:31:01;;;;;;;3.65;1.80;;;11.00;71.70;;;;;;4994490;28;20026;-74
2021/03/29 02:33:28;;;;;;;4.45;1.92;;;11.00;71.50;;;;;;4993915;28;20030;-73
2021/03/29 02:35:54;;;;;;;3.42;2.35;;;11.00;71.60;;;;;;4994206;28;20466;-74
2021/03/29 02:38:20;;;;;;;4.55;1.52;;;11.00;71.70;;;;;;4993291;28;20129;-73
2021/03/29 02:40:50;;;;;;;1.70;1.25;;;11.00;71.70;;;;;;4976100;28;20497;-73
2021/03/29 02:43:18;;;;;;;3.78;2.03;;;11.00;71.70;;;;;;4973898;28;20022;-74
2021/03/29 02:45:49;;;;;;;3.30;1.45;;;10.90;71.70;;;;;;4957183;28;20126;-74
2021/03/29 02:48:17;;;;;;;2.72;1.60;;;11.00;71.70;;;;;;4956306;28;20098;-73
2021/03/29 02:50:46;;;;;;;5.18;2.28;;;10.90;71.70;;;;;;4974113;28;20498;-73
2021/03/29 02:53:15;;;;;;;2.20;1.23;;;10.90;71.80;;;;;;4973752;28;20065;-74
2021/03/29 02:55:42;;;;;;;2.75;1.48;;;10.90;71.80;;;;;;4973158;28;20027;-74
2021/03/29 02:58:10;;;;;;;4.85;1.30;;;10.90;71.90;;;;;;4973746;28;20046;-74
2021/03/29 03:00:36;;;;;;;7.03;1.50;;;10.80;71.90;;;;;;4974015;28;20082;-74
2021/03/29 03:03:04;;;;;;;4.90;1.80;;;10.80;72.00;;;;;;4974211;28;20023;-74
2021/03/29 03:05:33;;;;;;;2.95;1.38;;;10.80;72.10;;;;;;4974101;28;20103;-73
2021/03/29 03:08:00;;;;;;;7.30;1.50;;;10.80;72.10;;;;;;4974144;28;20037;-74
2021/03/29 03:10:28;;;;;;;3.92;1.73;;;10.80;72.20;;;;;;4973483;28;20027;-74
2021/03/29 03:12:56;;;;;;;5.28;1.60;;;10.80;72.30;;;;;;4974044;28;20027;-74
2021/03/29 03:15:23;;;;;;;5.90;2.15;;;10.80;72.40;;;;;;4972978;28;20055;-73
2021/03/29 03:17:53;;;;;;;7.40;1.95;;;10.70;72.40;;;;;;4973818;28;20034;-73
2021/03/29 03:20:19;;;;;;;3.35;1.60;;;10.70;72.20;;;;;;4973124;28;20119;-74
2021/03/29 03:22:55;;;;;;;3.60;1.83;;;10.70;72.20;;;;;;4973263;28;20108;-73
2021/03/29 03:25:22;;;;;;;4.90;3.10;;;10.70;72.00;;;;;;4973243;28;20023;-74
2021/03/29 03:27:48;;;;;;;6.93;2.92;;;10.60;72.00;;;;;;4973758;28;20073;-74
2021/03/29 03:30:22;;;;;;;10.32;3.28;;;10.60;71.90;;;;;;4972913;28;20078;-74
2021/03/29 03:32:48;;;;;;;8.23;2.47;;;10.60;71.90;;;;;;4974067;28;20099;-74
2021/03/29 03:35:17;;;;;;;6.05;3.15;;;10.60;72.10;;;;;;4972697;28;20027;-74
2021/03/29 03:38:23;;;;;;;8.82;2.50;;;10.60;72.20;;;;;;4973423;28;20153;-74
2021/03/29 03:41:13;;;;;;;6.85;2.08;;;10.60;72.20;;;;;;4959508;28;20066;-73
2021/03/29 03:43:43;;;;;;;7.10;2.00;;;10.60;72.20;;;;;;4973285;28;20110;-74
2021/03/29 03:46:14;;;;;;;7.55;2.47;;;10.60;72.40;;;;;;4972627;28;20431;-74
2021/03/29 03:48:41;;;;;;;4.00;1.80;;;10.50;72.40;;;;;;4973667;28;20555;-74
2021/03/29 03:51:09;;;;;;;10.93;3.03;;;10.50;72.40;;;;;;4972724;28;20015;-74
2021/03/29 03:53:35;;;;;;;4.45;2.35;;;10.50;72.60;;;;;;4973224;28;20073;-73
2021/03/29 03:56:02;;;;;;;4.60;2.45;;;10.50;72.50;;;;;;4973159;28;20455;-74
2021/03/29 03:58:29;;;;;;;4.90;2.03;;;10.50;72.60;;;;;;4972273;28;20035;-74
2021/03/29 04:00:58;;;;;;;6.57;2.38;;;10.50;72.60;;;;;;4977624;28;20057;-74
2021/03/29 04:03:24;;;;;;;4.82;2.30;;;10.50;72.60;;;;;;4991802;28;20054;-74
2021/03/29 04:05:50;;;;;;;5.65;1.92;;;10.50;72.60;;;;;;4992310;28;20038;-73
2021/03/29 04:08:16;;;;;;;3.88;1.77;;;10.50;72.60;;;;;;4991433;28;20067;-72
2021/03/29 04:10:45;;;;;;;5.10;2.50;;;10.50;72.60;;;;;;4992475;28;20030;-69
2021/03/29 04:13:16;;;;;;;4.05;1.30;;;10.50;72.60;;;;;;4991728;28;20467;-72
2021/03/29 04:15:41;;;;;;;5.20;2.65;;;10.50;72.60;;;;;;4992384;28;20046;-72
2021/03/29 04:18:07;;;;;;;2.85;1.38;;;10.50;72.60;;;;;;4992333;28;20200;-75
2021/03/29 04:20:35;;;;;;;6.63;2.63;;;10.50;72.60;;;;;;4991773;28;20022;-78
2021/03/29 04:23:00;;;;;;;7.45;2.13;;;10.50;72.50;;;;;;4992064;28;20028;-74
2021/03/29 04:25:26;;;;;;;8.52;1.80;;;10.50;72.50;;;;;;4991588;28;20105;-74
2021/03/29 04:27:52;;;;;;;4.70;2.05;;;10.60;72.50;;;;;;4991998;28;20497;-74
2021/03/29 04:30:18;;;;;;;6.03;1.60;;;10.60;72.60;;;;;;4991534;28;20033;-75
2021/03/29 04:32:52;;;;;;;4.60;1.52;;;10.50;72.50;;;;;;4991334;28;20114;-75
2021/03/29 04:35:21;;;;;;;3.55;1.95;;;10.50;72.50;;;;;;4991561;28;20034;-75
2021/03/29 04:37:48;;;;;;;9.90;2.30;;;10.50;72.60;;;;;;4992050;28;20074;-74
2021/03/29 04:40:14;;;;;;;3.55;1.80;;;10.50;72.60;;;;;;4991107;28;20019;-73
2021/03/29 04:42:41;;;;;;;4.65;1.58;;;10.50;72.70;;;;;;4991758;28;20042;-75
2021/03/29 04:45:08;;;;;;;5.72;1.83;;;10.50;72.70;;;;;;4974314;28;20030;-75
2021/03/29 04:47:33;;;;;;;4.47;1.75;;;10.50;72.70;;;;;;4991109;28;20105;-74
2021/03/29 04:49:59;;;;;;;3.40;2.00;;;10.50;72.70;;;;;;4991580;28;20030;-74
2021/03/29 04:52:25;;;;;;;4.15;1.35;;;10.50;72.70;;;;;;4991205;28;20375;-75
2021/03/29 04:54:51;;;;;;;4.35;1.85;;;10.50;72.70;;;;;;4991762;28;20454;-74
2021/03/29 04:57:17;;;;;;;2.05;1.45;;;10.50;72.70;;;;;;4988201;28;20023;-74
2021/03/29 04:59:43;;;;;;;4.55;1.50;;;10.50;72.70;;;;;;4991140;28;20026;-73
2021/03/29 05:02:09;;;;;;;2.60;1.40;;;10.50;72.70;;;;;;4991232;28;20018;-74
2021/03/29 05:04:35;;;;;;;3.00;1.65;;;10.50;72.90;;;;;;4990670;28;20030;-74
2021/03/29 05:07:06;;;;;;;4.32;1.70;;;10.50;72.90;;;;;;4990464;28;20061;-74
2021/03/29 05:09:32;;;;;;;5.15;1.58;;;10.50;72.90;;;;;;4954057;28;20031;-75
2021/03/29 05:12:07;;;;;;;3.80;1.40;;;10.50;73.00;;;;;;4971921;28;20110;-74
2021/03/29 05:14:32;;;;;;;7.13;1.73;;;10.50;73.10;;;;;;4971125;28;20498;-73
2021/03/29 05:16:58;;;;;;;3.67;1.50;;;10.40;73.00;;;;;;4972198;28;20058;-74
2021/03/29 05:19:24;;;;;;;4.25;1.40;;;10.40;73.00;;;;;;4971791;28;20073;-74
2021/03/29 05:21:49;;;;;;;3.55;1.80;;;10.40;73.10;;;;;;4972158;28;20400;-75
2021/03/29 05:24:15;;;;;;;2.42;1.35;;;10.40;73.20;;;;;;4971790;28;20169;-73
2021/03/29 05:26:40;;;;;;;2.03;1.50;;;10.40;73.20;;;;;;4972108;28;20110;-73
2021/03/29 05:29:06;;;;;;;2.92;1.23;;;10.40;73.20;;;;;;4984049;28;20034;-81
2021/03/29 05:31:39;;;;;;;3.63;1.63;;;10.40;73.20;;;;;;4993417;28;20409;-81
2021/03/29 05:34:05;;;;;;;2.97;1.90;;;10.40;73.30;;;;;;4979530;28;20037;-81
2021/03/29 05:36:30;;;;;;;3.38;1.50;;;10.40;73.30;;;;;;4996812;28;20073;-84
2021/03/29 05:38:56;;;;;;;2.58;1.70;;;10.40;73.40;;;;;;4973932;28;20053;-85
2021/03/29 05:41:22;;;;;;;3.22;1.83;;;10.40;73.40;;;;;;4972886;28;20387;-84
2021/03/29 05:43:48;;;;;;;5.20;1.90;;;10.40;73.30;;;;;;4973255;28;20070;-83
2021/03/29 05:46:15;;;;;;;3.45;1.40;;;10.40;73.20;;;;;;4993895;28;20172;-85
2021/03/29 05:48:41;;;;;;;3.63;1.95;;;10.40;73.30;;;;;;4975947;28;20026;-81
2021/03/29 05:51:07;;;;;;;1.70;1.60;;;10.40;73.10;;;;;;4993327;28;20412;-81
2021/03/29 05:53:36;;;;;;;2.97;1.42;;;10.50;73.20;;;;;;4975523;28;20165;-80
2021/03/29 05:56:06;;;;;;;2.75;1.15;;;10.50;73.10;;;;;;4994168;28;20023;-73
2021/03/29 05:58:37;;;;;;;4.32;1.70;;;10.50;73.10;;;;;;4993942;28;20336;-72
2021/03/29 06:01:04;;;;;;;2.92;1.48;;;10.50;73.00;;;;;;4994868;28;20030;-72
2021/03/29 06:03:35;;;;;;;3.00;1.65;;;10.50;72.90;;;;;;4994069;28;20032;-72
2021/03/29 06:06:08;;;;;;;6.78;1.60;;;10.50;72.90;;;;;;4994685;28;20485;-72
2021/03/29 06:08:51;;;;;;;5.60;1.65;;;10.50;73.00;;;;;;4994105;28;20383;-72
2021/03/29 06:11:38;;;;;;;3.70;1.60;;;10.60;73.00;;;;;;4977269;28;20029;-72
2021/03/29 06:14:10;;;;;;;4.88;1.65;;;10.60;72.90;;;;;;4994311;28;20112;-72
2021/03/29 06:16:59;;;;;;;4.68;2.08;;;10.60;72.90;;;;;;4994005;28;20113;-73
2021/03/29 06:19:52;;;;;;;3.55;1.70;;;10.60;72.80;;;;;;4987244;28;20043;-73
2021/03/29 06:22:37;;;;;;;7.78;2.03;;;10.60;72.80;;;;;;4994132;28;20094;-74
2021/03/29 06:25:20;;;;;;;3.95;1.60;;;10.70;72.70;;;;;;4994332;28;20053;-72
2021/03/29 06:27:57;;;;;;;3.70;1.90;;;10.70;72.70;;;;;;4994303;28;20482;-73
2021/03/29 06:30:32;;;;;;;2.45;1.52;;;10.70;72.60;;;;;;4993627;28;20031;-73
2021/03/29 06:33:03;;;;;;;2.30;1.42;;;10.70;72.70;;;;;;4994017;28;20031;-72
2021/03/29 06:35:30;;;;;;;13.50;2.05;;;10.70;72.70;;;;;;4993577;28;20022;-72
2021/03/29 06:38:04;;;;;;;5.13;1.83;;;10.70;72.70;;;;;;4994070;28;20038;-73
2021/03/29 06:40:30;;;;;;;6.40;1.70;;;10.70;72.70;;;;;;4975898;28;20483;-73
2021/03/29 06:42:55;;;;;;;4.00;1.52;;;10.70;72.70;;;;;;4993812;28;20482;-72
2021/03/29 06:45:22;;;;;;;5.30;1.70;;;10.70;72.70;;;;;;4993535;28;20375;-73
2021/03/29 06:47:48;;;;;;;3.80;1.73;;;10.80;72.70;;;;;;4993740;28;20041;-73
2021/03/29 06:50:25;;;;;;;2.38;1.33;;;10.80;72.70;;;;;;4994232;28;20030;-74
2021/03/29 06:52:50;;;;;;;2.97;1.58;;;10.80;72.60;;;;;;4976173;28;20033;-72
2021/03/29 06:55:22;;;;;;;5.07;1.67;;;10.80;72.70;;;;;;4976309;28;20022;-73
2021/03/29 06:58:10;;;;;;;2.63;1.52;;;10.90;72.70;;;;;;4975119;28;20034;-72
2021/03/29 07:00:38;;;;;;;3.63;1.60;;;10.80;72.60;;;;;;4992924;28;20034;-72
2021/03/29 07:03:06;;;;;;;4.47;1.58;;;10.80;72.70;;;;;;4993729;28;20189;-73
2021/03/29 07:05:32;;;;;;;3.83;1.52;;;10.80;72.80;;;;;;4993289;28;20459;-72
2021/03/29 07:08:00;;;;;;;7.20;2.40;;;10.80;72.80;;;;;;4993510;28;20045;-72
2021/03/29 07:10:26;;;;;;;3.65;1.90;;;10.90;72.90;;;;;;4975092;28;20033;-72
2021/03/29 07:12:53;;;;;;;4.28;1.55;;;10.80;72.80;;;;;;4993414;28;20026;-72
2021/03/29 07:15:21;;;;;;;2.95;1.45;;;10.90;72.90;;;;;;4992809;28;20074;-72
2021/03/29 07:17:48;;;;;;;2.38;1.52;;;10.90;72.90;;;;;;4992781;28;20030;-72
2021/03/29 07:20:25;;;;;;;3.88;1.55;;;10.90;73.00;;;;;;4975711;28;20550;-72
2021/03/29 07:22:54;;;;;;;5.18;1.83;;;10.90;72.90;;;;;;4993404;28;20019;-73
2021/03/29 07:25:32;;;;;;;4.40;1.75;;;11.00;72.90;;;;;;4993201;28;20056;-72
2021/03/29 07:28:00;;;;;;;3.63;1.90;;;11.00;72.90;;;;;;4993273;28;20078;-73
2021/03/29 07:30:45;;;;;;;3.15;1.67;;;11.00;72.80;;;;;;4992540;28;20019;-72
2021/03/29 07:33:12;;;;;;;4.60;1.75;;;11.10;72.80;;;;;;4992965;28;20041;-72
2021/03/29 07:35:46;;;;;;;3.10;1.70;;;11.10;72.70;;;;;;4992611;28;20117;-73
2021/03/29 07:38:12;;;;;;;4.85;1.90;;;11.10;72.70;;;;;;4992809;28;20111;-72
2021/03/29 07:40:40;;;;;;;4.90;1.80;;;11.20;72.70;;;;;;4992340;28;20026;-73
2021/03/29 07:43:14;;;;;;;2.58;1.60;;;11.20;72.70;;;;;;4992825;28;20022;-73
2021/03/29 07:45:47;;;;;;;3.20;1.77;;;11.30;72.60;;;;;;4992270;28;20030;-73
2021/03/29 07:48:37;;;;;;;5.90;1.58;;;11.30;72.60;;;;;;4992698;28;20073;-72
2021/03/29 07:51:13;;;;;;;5.63;1.88;;;11.40;72.60;;;;;;4975144;28;20332;-72
2021/03/29 07:53:50;;;;;;;2.85;1.50;;;11.30;72.60;;;;;;4974558;28;20412;-72
2021/03/29 07:56:47;;;;;;;4.85;1.45;;;11.40;72.60;;;;;;4975210;28;20026;-72
2021/03/29 07:59:12;;;;;;;4.22;2.50;;;11.50;72.40;;;;;;4970754;28;20034;-73
2021/03/29 08:01:57;;;;;;;4.68;2.30;;;11.50;72.40;;;;;;4991887;28;20454;-73
2021/03/29 08:05:01;;;;;;;3.63;1.38;;;11.50;72.30;;;;;;4992341;28;20475;-73
2021/03/29 08:07:54;;;;;;;4.22;1.65;;;11.60;72.30;;;;;;4991582;28;20459;-73
2021/03/29 08:10:19;;;;;;;6.43;2.03;;;11.60;72.30;;;;;;4992703;28;20034;-73
2021/03/29 08:12:59;;;;;;;4.55;1.60;;;11.70;72.40;;;;;;4991656;28;20026;-73
2021/03/29 08:16:03;;;;;;;2.55;1.13;;;11.70;72.40;;;;;;4991786;28;20057;-72
2021/03/29 08:18:29;;;;;;;4.53;1.85;;;11.70;72.40;;;;;;4991557;28;20099;-73
2021/03/29 08:20:56;;;;;;;3.92;1.40;;;11.80;72.40;;;;;;4992007;28;20067;-72
2021/03/29 08:23:34;;;;;;;3.13;1.65;;;11.80;72.50;;;;;;4974537;28;20356;-73
2021/03/29 08:26:13;;;;;;;4.60;1.98;;;11.90;72.40;;;;;;4992101;28;20034;-72
2021/03/29 08:29:06;;;;;;;4.68;1.95;;;12.00;72.20;;;;;;4973854;28;20121;-72
2021/03/29 08:32:02;;;;;;;4.95;2.63;;;12.00;71.80;;;;;;4991134;28;20493;-72
2021/03/29 08:34:50;;;;;;;3.88;1.92;;;12.00;71.70;;;;;;4974152;28;20438;-72
2021/03/29 08:37:20;;;;;;;4.30;2.15;;;12.10;71.60;;;;;;4974399;28;20042;-72
2021/03/29 08:39:47;;;;;;;4.57;1.90;;;12.00;71.70;;;;;;4991355;28;20466;-73
2021/03/29 08:42:15;;;;;;;4.00;1.98;;;12.10;71.70;;;;;;4991655;28;20030;-72
2021/03/29 08:44:43;;;;;;;18.45;2.00;;;12.10;71.70;;;;;;4990918;28;20066;-72
2021/03/29 08:47:13;;;;;;;2.47;1.58;;;12.20;71.70;;;;;;4973917;28;20026;-73
2021/03/29 08:49:40;;;;;;;4.82;1.90;;;12.20;71.30;;;;;;4991048;28;20054;-73
2021/03/29 08:52:07;;;;;;;4.65;1.92;;;12.30;71.20;;;;;;4991700;28;20022;-73
2021/03/29 08:54:33;;;;;;;3.75;1.98;;;12.30;71.10;;;;;;4973427;28;20073;-73
2021/03/29 08:57:07;;;;;;;4.80;1.92;;;12.40;71.10;;;;;;4991649;28;20050;-73
2021/03/29 08:59:34;;;;;;;3.55;1.50;;;12.40;70.90;;;;;;4991069;28;20019;-73
2021/03/29 09:02:16;;;;;;;4.55;1.92;;;12.50;70.80;;;;;;4991281;28;20046;-73
2021/03/29 09:04:58;;;;;;;2.33;1.85;;;12.60;70.20;;;;;;4973462;28;20034;-73
2021/03/29 09:07:32;;;;;;;6.32;2.35;;;12.60;70.00;;;;;;4991526;28;20169;-71
2021/03/29 09:09:59;;;;;;;4.07;2.17;;;12.70;70.10;;;;;;4991477;28;20085;-72
2021/03/29 09:12:28;;;;;;;4.32;1.70;;;12.70;69.90;;;;;;4991592;28;20037;-73
2021/03/29 09:14:54;;;;;;;3.28;1.65;;;12.80;69.70;;;;;;4990506;28;20082;-73
2021/03/29 09:17:22;;;;;;;3.03;1.23;;;12.80;69.60;;;;;;4991469;28;20033;-73
2021/03/29 09:19:48;;;;;;;6.78;1.77;;;12.90;69.30;;;;;;4991914;28;20022;-73
2021/03/29 09:22:13;;;;;;;3.10;1.85;;;12.90;68.30;;;;;;4995255;28;20490;-72
2021/03/29 09:24:39;;;;;;;5.07;1.58;;;13.00;67.90;;;;;;4995022;28;20102;-73
2021/03/29 09:27:15;;;;;;;4.45;1.58;;;13.10;67.40;;;;;;4995374;28;20022;-72
2021/03/29 09:29:41;;;;;;;6.93;1.80;;;13.20;67.50;;;;;;4995117;28;20029;-72
2021/03/29 09:32:18;;;;;;;4.18;1.63;;;13.20;67.00;;;;;;4995315;28;20026;-73
2021/03/29 09:34:46;;;;;;;3.80;2.08;;;13.30;66.70;;;;;;4994862;28;20109;-73
2021/03/29 09:37:24;;;;;;;4.03;1.50;;;13.40;65.90;;;;;;4995174;28;20023;-73
2021/03/29 09:39:58;;;;;;;3.08;1.30;;;13.50;65.80;;;;;;4994421;28;20466;-72
2021/03/29 09:42:36;;;;;;;3.45;1.52;;;13.50;65.90;;;;;;4995025;28;20042;-73
2021/03/29 09:45:02;;;;;;;3.10;1.42;;;13.60;66.00;;;;;;4995119;28;20470;-73
2021/03/29 09:47:30;;;;;;;3.17;1.48;;;13.60;65.60;;;;;;4994925;28;20037;-73
2021/03/29 09:49:55;;;;;;;3.75;1.30;;;13.70;65.40;;;;;;4994377;28;20019;-73
2021/03/29 09:52:33;;;;;;;5.18;1.83;;;13.70;64.80;;;;;;4977385;28;20028;-74
2021/03/29 09:54:59;;;;;;;3.35;2.03;;;13.80;64.00;;;;;;4995017;28;20018;-72
2021/03/29 09:57:25;;;;;;;3.03;1.50;;;13.80;63.20;;;;;;4994894;28;20359;-72
2021/03/29 09:59:52;;;;;;;3.40;1.40;;;13.90;63.40;;;;;;4994065;28;20026;-72
2021/03/29 10:02:24;;;;;;;3.92;1.77;;;13.90;63.10;;;;;;4994624;28;20085;-73
2021/03/29 10:05:03;;;;;;;3.80;1.55;;;14.00;62.80;;;;;;4994141;28;20448;-72
2021/03/29 10:07:29;;;;;;;1.73;1.30;;;14.00;62.60;;;;;;4994411;28;20041;-73
2021/03/29 10:10:05;;;;;;;3.45;1.60;;;14.00;62.70;;;;;;4994010;28;20034;-73
2021/03/29 10:12:32;;;;;;;7.07;1.48;;;14.10;61.90;;;;;;4994611;28;20050;-71
2021/03/29 10:15:31;;;;;;;5.05;1.88;;;14.10;61.00;;;;;;4975960;28;20434;-73
2021/03/29 10:18:14;;;;;;;2.80;1.33;;;14.20;60.00;;;;;;4963471;28;20046;-72
2021/03/29 10:20:45;;;;;;;2.83;1.33;;;14.20;60.10;;;;;;4993964;28;20037;-73
2021/03/29 10:23:20;;;;;;;;;;;14.20;60.40;;;;;;4977034;28;20046;-73
2021/03/29 10:26:13;;;;;;;2.03;1.20;;;14.20;60.60;;;;;;4993674;28;19906;-73
2021/03/29 10:28:49;;;;;;;2.65;1.50;;;14.30;60.70;;;;;;4993472;28;20031;-72
2021/03/29 10:31:15;;;;;;;2.10;1.23;;;14.40;60.90;;;;;;4994009;28;20027;-73
2021/03/29 10:33:40;;;;;;;5.63;2.15;;;14.40;60.90;;;;;;4975931;28;20029;-73
2021/03/29 10:36:14;;;;;;;5.25;1.45;;;14.50;60.90;;;;;;4976557;28;20033;-73
2021/03/29 10:38:41;;;;;;;4.25;1.75;;;14.50;60.70;;;;;;4993764;28;20038;-74
2021/03/29 10:41:06;;;;;;;2.78;1.55;;;14.60;60.40;;;;;;4993551;28;20029;-72
2021/03/29 10:43:32;;;;;;;4.45;1.67;;;14.60;59.70;;;;;;4994014;28;20105;-73
2021/03/29 10:45:58;;;;;;;3.10;1.48;;;14.70;59.80;;;;;;4993224;28;20108;-73
2021/03/29 10:48:23;;;;;;;4.80;1.73;;;14.70;59.00;;;;;;4993640;28;20077;-73
2021/03/29 10:50:49;;;;;;;3.83;1.50;;;14.80;59.00;;;;;;4975524;28;20049;-72
2021/03/29 10:53:14;;;;;;;4.25;1.50;;;14.90;59.30;;;;;;4976231;28;20026;-72
2021/03/29 10:55:40;;;;;;;6.07;1.73;;;14.90;57.90;;;;;;4993179;28;20062;-73
2021/03/29 10:58:06;;;;;;;4.13;1.50;;;15.00;57.70;;;;;;4976140;28;20034;-72
2021/03/29 11:00:31;;;;;;;3.60;1.33;;;15.00;57.10;;;;;;4993600;28;20467;-73
2021/03/29 11:02:57;;;;;;;4.40;1.38;;;15.10;57.20;;;;;;4992772;28;20065;-73
2021/03/29 11:05:23;;;;;;;3.80;1.50;;;15.10;57.00;;;;;;4993644;28;20159;-73
2021/03/29 11:07:48;;;;;;;2.47;1.33;;;15.10;57.20;;;;;;4992812;28;20031;-73
2021/03/29 11:10:14;;;;;;;2.85;1.50;;;15.20;57.60;;;;;;4993490;28;20038;-73
2021/03/29 11:12:40;;;;;;;1.75;1.30;;;15.30;57.50;;;;;;4993029;28;20462;-73
2021/03/29 11:15:07;;;;;;;7.60;1.73;;;15.40;56.60;;;;;;4993373;28;20050;-73
2021/03/29 11:17:35;;;;;;;3.17;1.73;;;15.50;55.90;;;;;;4976058;28;20022;-73
2021/03/29 11:20:00;;;;;;;6.43;1.77;;;15.60;55.30;;;;;;4992955;28;20346;-72
2021/03/29 11:22:26;;;;;;;3.08;1.33;;;15.80;55.00;;;;;;4993099;28;20049;-73
2021/03/29 11:24:52;;;;;;;5.20;1.25;;;15.90;55.10;;;;;;4992368;28;20459;-72
2021/03/29 11:27:17;;;;;;;4.70;1.63;;;16.00;55.00;;;;;;4975697;28;20078;-73
2021/03/29 11:29:43;;;;;;;1.80;1.25;;;16.10;55.30;;;;;;4992881;28;20093;-74
2021/03/29 11:32:08;;;;;;;3.97;1.10;;;16.20;55.20;;;;;;4992828;28;20049;-74
2021/03/29 11:34:34;;;;;;;4.53;1.50;;;16.40;55.00;;;;;;4993201;28;20092;-73
2021/03/29 11:36:59;;;;;;;6.25;1.50;;;16.50;54.40;;;;;;4992443;28;20026;-72
2021/03/29 11:39:25;;;;;;;1.80;1.15;;;16.60;52.50;;;;;;4992692;28;20475;-72
2021/03/29 11:41:51;;;;;;;2.40;1.45;;;16.70;51.40;;;;;;4992021;28;20114;-74
2021/03/29 11:44:16;;;;;;;2.20;1.20;;;16.80;52.10;;;;;;4992533;28;20103;-73
2021/03/29 11:46:42;;;;;;;3.65;1.20;;;17.00;52.20;;;;;;4992467;28;20378;-75
2021/03/29 11:49:08;;;;;;;7.28;1.60;;;17.10;52.30;;;;;;4992792;28;20037;-74
2021/03/29 11:51:33;;;;;;;5.35;1.42;;;17.30;50.20;;;;;;4992772;28;20382;-73
2021/03/29 11:54:00;;;;;;;1.95;1.10;;;17.40;50.70;;;;;;4974377;28;20042;-73
2021/03/29 11:56:25;;;;;;;5.47;1.17;;;17.50;49.70;;;;;;4975035;28;20466;-73
2021/03/29 11:58:52;;;;;;;3.10;1.35;;;17.70;49.90;;;;;;4991607;28;20035;-74
2021/03/29 12:04:02;;;;;;;3.85;1.30;;;18.10;49.50;;;;;;4992087;28;20161;-73
2021/03/29 12:06:38;;;;;;;3.50;1.17;;;18.30;48.50;;;;;;4975083;28;20124;-72
2021/03/29 12:14:11;;;;;;;1.50;0.90;;;18.60;48.50;;;;;;4992415;28;20395;-73
2021/03/29 12:16:41;;;;;;;1.75;1.13;;;18.80;48.30;;;;;;4992253;28;20447;-74
2021/03/29 12:19:07;;;;;;;1.90;0.90;;;18.90;47.80;;;;;;4991756;28;20034;-74
2021/03/29 12:21:37;;;;;;;4.30;1.20;;;19.00;47.70;;;;;;4992197;28;20027;-73
2021/03/29 12:24:26;;;;;;;2.08;1.27;;;19.10;46.40;;;;;;4991685;28;20348;-74
2021/03/29 12:26:52;;;;;;;3.33;1.50;;;19.10;46.00;;;;;;4991776;28;20105;-74
2021/03/29 12:29:25;;;;;;;2.53;1.13;;;19.10;45.90;;;;;;4991974;28;20113;-73
2021/03/29 12:31:51;;;;;;;2.35;1.00;;;19.20;46.20;;;;;;4991229;28;20364;-72
2021/03/29 12:34:17;;;;;;;2.30;1.20;;;19.30;45.70;;;;;;4991701;28;20023;-73
2021/03/29 12:36:50;;;;;;;3.00;1.15;;;19.30;45.30;;;;;;4974513;28;20031;-73
2021/03/29 12:41:45;;;;;;;2.60;1.02;;;19.40;45.00;;;;;;4991530;28;20066;-73
2021/03/29 12:44:17;;;;;;;5.38;1.33;;;19.40;44.10;;;;;;4974164;28;20553;-72
2021/03/29 12:46:46;;;;;;;;;;;19.30;44.10;;;;;;4992472;28;20064;-73
2021/03/29 12:49:13;;;;;;;2.70;1.17;;;19.30;44.40;;;;;;4991080;28;20353;-72
2021/03/29 12:51:39;;;;;;;2.95;1.40;;;19.30;44.50;;;;;;4991783;28;20443;-72
2021/03/29 12:54:14;;;;;;;2.53;1.30;;;19.30;43.60;;;;;;4990152;28;20035;-73
2021/03/29 12:56:44;;;;;;;3.10;1.60;;;19.30;43.00;;;;;;4991446;28;20097;-73
2021/03/29 12:59:09;;;;;;;3.50;2.17;;;19.30;42.90;;;;;;4990893;28;20058;-73
2021/03/29 13:01:37;;;;;;;2.88;1.35;;;19.20;42.50;;;;;;4991693;28;20054;-73
2021/03/29 13:04:12;;;;;;;5.45;1.70;;;19.20;42.10;;;;;;4990795;28;20037;-73
2021/03/29 13:06:47;;;;;;;3.25;1.20;;;19.20;41.90;;;;;;4974020;28;20122;-72
2021/03/29 13:09:27;;;;;;;5.78;1.65;;;19.10;42.60;;;;;;4991488;28;20126;-73
2021/03/29 13:11:56;;;;;;;1.77;1.10;;;19.20;43.20;;;;;;4991138;28;20105;-73
2021/03/29 13:14:23;;;;;;;1.42;0.90;;;19.20;43.50;;;;;;4991153;28;20080;-73